Lady Debora — V2QG7 — position and weather

sailwx.info

Track history (hours):
 
Tides and Currents Weather Stations Pressure Air Temp Water Temp Dewpoint Dewpoint Depression Visibility Wind Speed Wind Dir Waves Ship Positions

Lady Debora

Last reported at 2016-May-23 20:10 UTC. Time now 2016-May-26 18:30 UTC.
Position N 37°53' E 024°36'.

Length 107 m; draft 7.2 m.

Type: Cargo ship. MMSI: 304010760.

Date/timePositionNaut miles runAvg speedWind from/ knotsBaromVisibWave heightAir tempDewpointWater temp
2016-May-23 20:10N 37°53' E 024°36'5 8.5
2016-May-23 19:33N 37°48' E 024°33'9 9.0
2016-May-23 18:31N 37°40' E 024°28'46 8.6
2016-May-23 13:15N 37°04' E 023°53'6 8.6
2016-May-23 12:31N 36°59' E 023°48'  
2016-May-21 04:31N 36°42' E 014°16'9 9.0
2016-May-21 03:33N 36°44' E 014°06'18 9.2
2016-May-21 01:33N 36°48' E 013°44'  
2016-May-18 05:19N 38°11' E 001°22'85 2.5
2016-May-16 19:31N 38°19' W 000°26'9 9.2
2016-May-16 18:30N 38°23' W 000°15'3310.1
2016-May-16 15:11N 38°41' E 000°21'710.1
2016-May-16 14:30N 38°47' E 000°26'8410.5
2016-May-16 06:33N 39°56' E 001°26'1010.4
2016-May-16 05:33N 40°05' E 001°34'1110.8
2016-May-16 04:33N 40°14' E 001°42'1111.0
2016-May-16 03:33N 40°23' E 001°49'1010.4
2016-May-16 02:33N 40°32' E 001°57'1010.2
2016-May-16 01:33N 40°40' E 002°05'1210.4
2016-May-16 00:21N 40°50' E 002°15'910.7
2016-May-15 23:33N 40°56' E 002°23'1110.6
2016-May-15 22:33N 41°05' E 002°31'1110.6
2016-May-15 21:33N 41°13' E 002°40'  
Track history (hours):
 
Tides and Currents Weather Stations Pressure Air Temp Water Temp Dewpoint Dewpoint Depression Visibility Wind Speed Wind Dir Waves Ship Positions

Lady Debora

Last reported at 2016-May-23 20:10 UTC. Time now 2016-May-26 18:30 UTC.
Position N 37°53' E 024°36'.

Length 107 m; draft 7.2 m.

Type: Cargo ship. MMSI: 304010760.

Date/timePositionNaut miles runAvg speedWind from/ knotsBaromVisibWave heightAir tempDewpointWater temp
2016-May-23 20:10N 37°53' E 024°36'5 8.5
2016-May-23 19:33N 37°48' E 024°33'9 9.0
2016-May-23 18:31N 37°40' E 024°28'46 8.6
2016-May-23 13:15N 37°04' E 023°53'6 8.6
2016-May-23 12:31N 36°59' E 023°48'  
2016-May-21 04:31N 36°42' E 014°16'9 9.0
2016-May-21 03:33N 36°44' E 014°06'18 9.2
2016-May-21 01:33N 36°48' E 013°44'  
2016-May-18 05:19N 38°11' E 001°22'85 2.5
2016-May-16 19:31N 38°19' W 000°26'9 9.2
2016-May-16 18:30N 38°23' W 000°15'3310.1
2016-May-16 15:11N 38°41' E 000°21'710.1
2016-May-16 14:30N 38°47' E 000°26'8410.5
2016-May-16 06:33N 39°56' E 001°26'1010.4
2016-May-16 05:33N 40°05' E 001°34'1110.8
2016-May-16 04:33N 40°14' E 001°42'1111.0
2016-May-16 03:33N 40°23' E 001°49'1010.4
2016-May-16 02:33N 40°32' E 001°57'1010.2
2016-May-16 01:33N 40°40' E 002°05'1210.4
2016-May-16 00:21N 40°50' E 002°15'910.7
2016-May-15 23:33N 40°56' E 002°23'1110.6
2016-May-15 22:33N 41°05' E 002°31'1110.6
2016-May-15 21:33N 41°13' E 002°40'  

Dump ship's entire track history